createdAt,value
2022-10-11T00:03:14.092Z,11.81
2022-10-11T00:08:39.381Z,11.62
2022-10-11T00:13:31.790Z,11.38
2022-10-11T00:18:31.729Z,11.14
2022-10-11T00:23:31.636Z,10.93
2022-10-11T00:28:31.624Z,10.76
2022-10-11T00:33:31.481Z,10.63
2022-10-11T00:38:32.113Z,10.52
2022-10-11T00:43:31.384Z,10.43
2022-10-11T00:48:31.302Z,10.35
2022-10-11T00:53:31.235Z,10.27
2022-10-11T00:58:31.182Z,10.17
2022-10-11T01:03:31.086Z,10.06
2022-10-11T01:08:31.056Z,9.94
2022-10-11T01:13:31.023Z,9.81
2022-10-11T01:18:30.903Z,9.69
2022-10-11T01:23:30.837Z,9.57
2022-10-11T01:28:30.803Z,9.45
2022-10-11T01:33:30.713Z,9.33
2022-10-11T01:38:30.771Z,9.23
2022-10-11T01:43:30.558Z,9.13
2022-10-11T01:48:30.513Z,9.04
2022-10-11T01:53:30.431Z,8.96
2022-10-11T01:58:30.405Z,8.88
2022-10-11T02:03:30.284Z,8.80
2022-10-11T02:08:30.250Z,8.74
2022-10-11T02:13:30.172Z,8.69
2022-10-11T02:18:30.083Z,8.66
2022-10-11T02:23:30.042Z,8.62
2022-10-11T02:28:30.040Z,8.58
2022-10-11T02:33:29.874Z,8.53
2022-10-11T02:38:29.845Z,8.47
2022-10-11T02:43:29.772Z,8.41
2022-10-11T02:48:29.700Z,8.35
2022-10-11T02:53:29.614Z,8.30
2022-10-11T02:58:29.593Z,8.26
2022-10-11T03:03:29.479Z,8.22
2022-10-11T03:08:29.436Z,8.19
2022-10-11T03:13:29.355Z,8.15
2022-10-11T03:18:29.296Z,8.12
2022-10-11T03:23:29.220Z,8.08
2022-10-11T03:28:29.198Z,8.04
2022-10-11T03:33:29.118Z,8.01
2022-10-11T03:38:29.030Z,7.98
2022-10-11T03:43:28.954Z,7.97
2022-10-11T03:48:28.891Z,7.99
2022-10-11T03:53:28.821Z,8.03
2022-10-11T03:58:28.783Z,8.06
2022-10-11T04:03:28.689Z,8.09
2022-10-11T04:08:28.602Z,8.11
2022-10-11T04:13:28.571Z,8.12
2022-10-11T04:18:38.109Z,8.12
2022-10-11T04:23:30.479Z,8.08
2022-10-11T04:28:30.542Z,8.05
2022-10-11T04:33:30.474Z,8.05
2022-10-11T04:38:30.274Z,8.07
2022-10-11T04:43:30.293Z,8.11
2022-10-11T04:48:30.142Z,8.14
2022-10-11T04:53:30.094Z,8.16
2022-10-11T04:58:30.026Z,8.16
2022-10-11T05:03:29.956Z,8.15
2022-10-11T05:08:29.938Z,8.12
2022-10-11T05:13:29.824Z,8.08
2022-10-11T05:18:29.735Z,8.02
2022-10-11T05:23:29.735Z,7.99
2022-10-11T05:28:29.710Z,7.97
2022-10-11T05:33:29.544Z,7.97
2022-10-11T05:38:29.483Z,7.97
2022-10-11T05:43:29.418Z,7.97
2022-10-11T05:48:29.381Z,7.97
2022-10-11T05:53:29.277Z,8.01
2022-10-11T05:58:29.246Z,8.09
2022-10-11T06:03:29.165Z,8.20
2022-10-11T06:08:29.062Z,8.34
2022-10-11T06:13:29.022Z,8.48
2022-10-11T06:18:28.971Z,8.62
2022-10-11T06:23:28.885Z,8.77
2022-10-11T06:28:28.876Z,8.95
2022-10-11T06:33:28.764Z,9.13
2022-10-11T06:38:28.667Z,9.34
2022-10-11T06:43:28.646Z,9.55
2022-10-11T06:48:28.550Z,9.78
2022-10-11T06:53:28.485Z,10.01
2022-10-11T06:58:28.457Z,10.20
2022-10-11T07:03:28.330Z,10.39
2022-10-11T07:08:28.269Z,10.62
2022-10-11T07:13:28.209Z,10.94
2022-10-11T07:18:28.125Z,11.53
2022-10-11T07:23:28.091Z,12.28
2022-10-11T07:28:28.071Z,12.78
2022-10-11T07:33:27.927Z,13.10
2022-10-11T07:38:27.903Z,14.03
2022-10-11T07:43:27.813Z,15.32
2022-10-11T07:48:27.723Z,15.91
2022-10-11T07:53:27.693Z,15.87
2022-10-11T07:58:27.623Z,15.69
2022-10-11T08:03:27.561Z,15.61
2022-10-11T08:08:27.472Z,15.47
2022-10-11T08:13:27.436Z,15.36
2022-10-11T08:18:27.345Z,15.38
2022-10-11T08:23:27.242Z,15.85
2022-10-11T08:28:27.245Z,17.50
2022-10-11T08:33:27.134Z,19.06
2022-10-11T08:38:27.047Z,20.31
2022-10-11T08:43:26.997Z,21.46
2022-10-11T08:48:26.928Z,22.49
2022-10-11T08:53:26.839Z,23.10
2022-10-11T08:58:26.810Z,23.46
2022-10-11T09:03:26.709Z,24.49
2022-10-11T09:08:26.635Z,26.20
2022-10-11T09:13:26.589Z,28.32
2022-10-11T09:18:26.539Z,30.30
2022-10-11T09:23:26.477Z,32.03
2022-10-11T09:28:26.422Z,33.63
2022-10-11T09:33:26.329Z,35.03
2022-10-11T09:38:26.242Z,36.25
2022-10-11T09:43:26.176Z,37.27
2022-10-11T09:48:26.132Z,38.04
2022-10-11T09:53:26.041Z,38.52
2022-10-11T09:58:26.002Z,38.89
2022-10-11T10:03:25.931Z,39.38
2022-10-11T10:08:25.837Z,39.90
2022-10-11T10:13:25.799Z,40.29
2022-10-11T10:18:25.712Z,40.65
2022-10-11T10:23:25.640Z,40.74
2022-10-11T10:28:25.663Z,40.65
2022-10-11T10:33:25.560Z,40.84
2022-10-11T10:38:26.698Z,41.06
2022-10-11T10:43:25.556Z,40.64
2022-10-11T10:48:25.290Z,38.70
2022-10-11T10:53:25.260Z,36.18
2022-10-11T10:58:25.193Z,33.98
2022-10-11T11:03:25.109Z,31.76
2022-10-11T11:08:25.061Z,30.08
2022-10-11T11:13:25.042Z,28.93
2022-10-11T11:18:24.935Z,28.54
2022-10-11T11:23:24.867Z,28.91
2022-10-11T11:28:24.840Z,28.97
2022-10-11T11:33:24.721Z,29.71
2022-10-11T11:38:29.246Z,31.17
2022-10-11T11:43:25.589Z,32.38
2022-10-11T11:48:24.503Z,33.26
2022-10-11T11:53:24.461Z,33.73
2022-10-11T11:58:24.378Z,33.79
2022-10-11T12:03:24.285Z,33.70
2022-10-11T12:08:24.256Z,33.44
2022-10-11T12:13:27.248Z,33.02
2022-10-11T12:18:25.108Z,32.48
2022-10-11T12:23:24.054Z,31.93
2022-10-11T12:28:24.059Z,31.26
2022-10-11T12:33:23.923Z,30.00
2022-10-11T12:38:23.863Z,28.30
2022-10-11T12:43:23.781Z,26.71
2022-10-11T12:48:25.572Z,25.40
2022-10-11T12:53:23.645Z,24.37
2022-10-11T12:58:23.604Z,23.52
2022-10-11T13:03:26.158Z,22.87
2022-10-11T13:08:23.478Z,22.42
2022-10-11T13:13:23.392Z,22.10
2022-10-11T13:18:23.321Z,21.72
2022-10-11T13:23:23.218Z,21.35
2022-10-11T13:28:23.214Z,21.22
2022-10-11T13:33:23.106Z,21.50
2022-10-11T13:38:23.032Z,22.01
2022-10-11T13:43:22.974Z,22.52
2022-10-11T13:48:22.887Z,22.98
2022-10-11T13:53:22.820Z,23.20
2022-10-11T13:58:22.792Z,23.07
2022-10-11T14:03:22.674Z,22.70
2022-10-11T14:08:22.622Z,22.30
2022-10-11T14:13:22.557Z,21.95
2022-10-11T14:18:22.506Z,21.63
2022-10-11T14:23:22.422Z,21.32
2022-10-11T14:28:22.550Z,20.99
2022-10-11T14:33:22.309Z,20.63
2022-10-11T14:38:22.280Z,20.28
2022-10-11T14:43:22.144Z,19.95
2022-10-11T14:48:42.940Z,19.56
2022-10-11T14:53:23.013Z,19.19
2022-10-11T14:58:21.922Z,18.92
2022-10-11T15:03:21.878Z,18.70
2022-10-11T15:08:21.821Z,18.49
2022-10-11T15:13:21.762Z,18.28
2022-10-11T15:18:21.769Z,18.07
2022-10-11T15:23:21.609Z,17.85
2022-10-11T15:28:21.602Z,17.64
2022-10-11T15:33:21.473Z,17.42
2022-10-11T15:38:21.425Z,17.18
2022-10-11T15:43:24.755Z,16.91
2022-10-11T15:48:21.256Z,16.64
2022-10-11T15:53:21.202Z,16.38
2022-10-11T15:58:21.137Z,16.12
2022-10-11T16:03:21.062Z,15.88
2022-10-11T16:08:21.009Z,15.64
2022-10-11T16:13:20.932Z,15.41
2022-10-11T16:18:20.870Z,15.18
2022-10-11T16:23:20.809Z,14.96
2022-10-11T16:28:20.763Z,14.72
2022-10-11T16:33:20.662Z,14.48
2022-10-11T16:38:20.596Z,14.25
2022-10-11T16:43:20.499Z,14.02
2022-10-11T16:48:20.463Z,13.79
2022-10-11T16:53:20.388Z,13.58
2022-10-11T16:58:20.329Z,13.37
2022-10-11T17:03:20.251Z,13.17
2022-10-11T17:08:20.192Z,12.96
2022-10-11T17:13:20.124Z,12.76
2022-10-11T17:18:20.069Z,12.59
2022-10-11T17:23:19.972Z,12.43
2022-10-11T17:28:19.953Z,12.29
2022-10-11T17:33:19.878Z,12.16
2022-10-11T17:38:19.798Z,12.05
2022-10-11T17:43:19.752Z,11.96
2022-10-11T17:48:19.658Z,11.88
2022-10-11T17:53:19.613Z,11.81
2022-10-11T17:58:19.533Z,11.75
2022-10-11T18:03:19.470Z,11.69
2022-10-11T18:08:19.411Z,11.63
2022-10-11T18:13:19.301Z,11.57
2022-10-11T18:18:19.258Z,11.51
2022-10-11T18:23:19.184Z,11.46
2022-10-11T18:28:19.202Z,11.39
2022-10-11T18:33:19.058Z,11.29
2022-10-11T18:38:19.001Z,11.16
2022-10-11T18:43:18.953Z,11.01
2022-10-11T18:48:18.841Z,10.85
2022-10-11T18:53:18.854Z,10.69
2022-10-11T18:58:18.722Z,10.54
2022-10-11T19:03:18.637Z,10.40
2022-10-11T19:08:18.595Z,10.28
2022-10-11T19:13:18.538Z,10.16
2022-10-11T19:18:20.585Z,10.05
2022-10-11T19:23:18.363Z,9.93
2022-10-11T19:28:18.397Z,9.81
2022-10-11T19:33:18.270Z,9.71
2022-10-11T19:38:18.263Z,9.61
2022-10-11T19:43:18.140Z,9.53
2022-10-11T19:48:18.072Z,9.46
2022-10-11T19:53:17.952Z,9.39
2022-10-11T19:58:17.937Z,9.32
2022-10-11T20:03:17.834Z,9.27
2022-10-11T20:08:17.776Z,9.22
2022-10-11T20:13:17.697Z,9.16
2022-10-11T20:18:17.635Z,9.11
2022-10-11T20:23:18.199Z,9.07
2022-10-11T20:28:17.527Z,9.02
2022-10-11T20:33:17.421Z,8.97
2022-10-11T20:38:17.373Z,8.91
2022-10-11T20:43:17.324Z,8.84
2022-10-11T20:48:17.207Z,8.76
2022-10-11T20:53:17.138Z,8.68
2022-10-11T20:58:17.074Z,8.61
2022-10-11T21:03:17.029Z,8.54
2022-10-11T21:08:16.992Z,8.46
2022-10-11T21:13:16.883Z,8.39
2022-10-11T21:18:16.795Z,8.33
2022-10-11T21:23:16.754Z,8.28
2022-10-11T21:28:16.754Z,8.25
2022-10-11T21:33:16.595Z,8.21
2022-10-11T21:38:16.544Z,8.18
2022-10-11T21:43:16.504Z,8.13
2022-10-11T21:48:16.442Z,8.07
2022-10-11T21:53:16.348Z,8.01
2022-10-11T21:58:16.279Z,7.95
2022-10-11T22:03:16.227Z,7.90
2022-10-11T22:08:16.153Z,7.85
2022-10-11T22:13:16.088Z,7.78
2022-10-11T22:18:16.027Z,7.72
2022-10-11T22:23:15.954Z,7.66
2022-10-11T22:28:15.920Z,7.61
2022-10-11T22:33:15.818Z,7.57
2022-10-11T22:38:15.744Z,7.53
2022-10-11T22:43:15.676Z,7.49
2022-10-11T22:48:15.644Z,7.44
2022-10-11T22:53:15.554Z,7.39
2022-10-11T22:58:15.492Z,7.34
2022-10-11T23:03:15.436Z,7.29
2022-10-11T23:08:15.353Z,7.24
2022-10-11T23:13:15.257Z,7.19
2022-10-11T23:18:15.212Z,7.15
2022-10-11T23:23:15.145Z,7.11
2022-10-11T23:28:15.120Z,7.06
2022-10-11T23:33:15.010Z,7.01
2022-10-11T23:38:14.961Z,6.96
2022-10-11T23:43:14.876Z,6.91
2022-10-11T23:48:14.814Z,6.86
2022-10-11T23:53:14.735Z,6.81
2022-10-11T23:58:14.694Z,6.77
